sensor_id;sensor_type;location;lat;lon;timestamp;P1;durP1;ratioP1;P2;durP2;ratioP2
8100;SDS011;4093;53.470;9.832;2022-09-25T00:01:25;37.10;;;26.73;;
8100;SDS011;4093;53.470;9.832;2022-09-25T00:03:53;37.73;;;26.63;;
8100;SDS011;4093;53.470;9.832;2022-09-25T00:06:21;37.90;;;27.73;;
8100;SDS011;4093;53.470;9.832;2022-09-25T00:08:48;40.37;;;28.77;;
8100;SDS011;4093;53.470;9.832;2022-09-25T00:11:17;38.63;;;26.67;;
8100;SDS011;4093;53.470;9.832;2022-09-25T00:13:46;35.03;;;25.17;;
8100;SDS011;4093;53.470;9.832;2022-09-25T00:16:14;33.93;;;23.83;;
8100;SDS011;4093;53.470;9.832;2022-09-25T00:18:42;34.93;;;24.83;;
8100;SDS011;4093;53.470;9.832;2022-09-25T00:21:27;42.20;;;28.97;;
8100;SDS011;4093;53.470;9.832;2022-09-25T00:23:55;38.30;;;26.03;;
8100;SDS011;4093;53.470;9.832;2022-09-25T00:26:24;38.03;;;26.73;;
8100;SDS011;4093;53.470;9.832;2022-09-25T00:28:52;43.87;;;29.13;;
8100;SDS011;4093;53.470;9.832;2022-09-25T00:31:20;42.67;;;28.63;;
8100;SDS011;4093;53.470;9.832;2022-09-25T00:33:49;33.80;;;24.70;;
8100;SDS011;4093;53.470;9.832;2022-09-25T00:36:16;39.87;;;26.93;;
8100;SDS011;4093;53.470;9.832;2022-09-25T00:38:44;41.43;;;27.37;;
8100;SDS011;4093;53.470;9.832;2022-09-25T00:41:13;42.50;;;28.80;;
8100;SDS011;4093;53.470;9.832;2022-09-25T00:43:41;33.43;;;23.40;;
8100;SDS011;4093;53.470;9.832;2022-09-25T00:46:10;40.67;;;27.80;;
8100;SDS011;4093;53.470;9.832;2022-09-25T00:48:41;35.53;;;23.17;;
8100;SDS011;4093;53.470;9.832;2022-09-25T00:51:15;42.30;;;28.67;;
8100;SDS011;4093;53.470;9.832;2022-09-25T00:53:45;47.53;;;31.77;;
8100;SDS011;4093;53.470;9.832;2022-09-25T00:56:12;38.93;;;27.00;;
8100;SDS011;4093;53.470;9.832;2022-09-25T00:58:39;44.13;;;29.23;;
8100;SDS011;4093;53.470;9.832;2022-09-25T01:01:07;40.53;;;29.03;;
8100;SDS011;4093;53.470;9.832;2022-09-25T01:03:35;35.83;;;24.73;;
8100;SDS011;4093;53.470;9.832;2022-09-25T01:06:02;37.97;;;26.93;;
8100;SDS011;4093;53.470;9.832;2022-09-25T01:08:29;40.70;;;26.73;;
8100;SDS011;4093;53.470;9.832;2022-09-25T01:10:59;38.17;;;25.63;;
8100;SDS011;4093;53.470;9.832;2022-09-25T01:13:26;40.63;;;25.83;;
8100;SDS011;4093;53.470;9.832;2022-09-25T01:15:56;39.30;;;28.57;;
8100;SDS011;4093;53.470;9.832;2022-09-25T01:18:35;37.67;;;24.80;;
8100;SDS011;4093;53.470;9.832;2022-09-25T01:21:25;39.70;;;26.30;;
8100;SDS011;4093;53.470;9.832;2022-09-25T01:24:10;38.33;;;25.97;;
8100;SDS011;4093;53.470;9.832;2022-09-25T01:30:15;38.30;;;25.73;;
8100;SDS011;4093;53.470;9.832;2022-09-25T01:32:47;38.23;;;27.07;;
8100;SDS011;4093;53.470;9.832;2022-09-25T01:35:22;39.83;;;25.93;;
8100;SDS011;4093;53.470;9.832;2022-09-25T01:37:59;37.73;;;26.10;;
8100;SDS011;4093;53.470;9.832;2022-09-25T01:40:36;40.73;;;29.20;;
8100;SDS011;4093;53.470;9.832;2022-09-25T01:43:09;41.30;;;28.37;;
8100;SDS011;4093;53.470;9.832;2022-09-25T01:45:41;35.77;;;23.77;;
8100;SDS011;4093;53.470;9.832;2022-09-25T01:48:12;44.50;;;28.00;;
8100;SDS011;4093;53.470;9.832;2022-09-25T01:50:42;37.47;;;25.73;;
8100;SDS011;4093;53.470;9.832;2022-09-25T01:53:14;43.63;;;27.40;;
8100;SDS011;4093;53.470;9.832;2022-09-25T01:55:45;40.60;;;26.83;;
8100;SDS011;4093;53.470;9.832;2022-09-25T01:58:16;40.17;;;26.93;;
8100;SDS011;4093;53.470;9.832;2022-09-25T02:00:48;45.50;;;28.93;;
8100;SDS011;4093;53.470;9.832;2022-09-25T02:03:20;40.07;;;26.57;;
8100;SDS011;4093;53.470;9.832;2022-09-25T02:05:56;39.80;;;25.57;;
8100;SDS011;4093;53.470;9.832;2022-09-25T02:08:27;38.27;;;26.50;;
8100;SDS011;4093;53.470;9.832;2022-09-25T02:10:58;42.23;;;26.97;;
8100;SDS011;4093;53.470;9.832;2022-09-25T02:13:26;35.50;;;24.17;;
8100;SDS011;4093;53.470;9.832;2022-09-25T02:16:01;42.80;;;27.10;;
8100;SDS011;4093;53.470;9.832;2022-09-25T02:18:32;38.87;;;26.67;;
8100;SDS011;4093;53.470;9.832;2022-09-25T02:21:13;39.57;;;26.40;;
8100;SDS011;4093;53.470;9.832;2022-09-25T02:23:48;39.17;;;25.00;;
8100;SDS011;4093;53.470;9.832;2022-09-25T02:26:21;40.63;;;26.27;;
8100;SDS011;4093;53.470;9.832;2022-09-25T02:28:51;37.93;;;25.67;;
8100;SDS011;4093;53.470;9.832;2022-09-25T02:31:20;31.43;;;22.83;;
8100;SDS011;4093;53.470;9.832;2022-09-25T02:33:50;43.47;;;26.77;;
8100;SDS011;4093;53.470;9.832;2022-09-25T02:36:17;39.40;;;26.83;;
8100;SDS011;4093;53.470;9.832;2022-09-25T02:38:46;37.00;;;23.43;;
8100;SDS011;4093;53.470;9.832;2022-09-25T02:41:16;37.80;;;24.27;;
8100;SDS011;4093;53.470;9.832;2022-09-25T02:43:51;38.27;;;24.37;;
8100;SDS011;4093;53.470;9.832;2022-09-25T02:46:25;40.87;;;26.57;;
8100;SDS011;4093;53.470;9.832;2022-09-25T02:49:02;40.63;;;25.53;;
8100;SDS011;4093;53.470;9.832;2022-09-25T02:51:39;45.50;;;27.50;;
8100;SDS011;4093;53.470;9.832;2022-09-25T02:54:13;48.07;;;27.37;;
8100;SDS011;4093;53.470;9.832;2022-09-25T02:56:46;41.97;;;25.90;;
8100;SDS011;4093;53.470;9.832;2022-09-25T02:59:18;46.23;;;27.30;;
8100;SDS011;4093;53.470;9.832;2022-09-25T03:01:49;41.10;;;25.20;;
8100;SDS011;4093;53.470;9.832;2022-09-25T03:04:17;38.20;;;23.10;;
8100;SDS011;4093;53.470;9.832;2022-09-25T03:06:45;43.27;;;26.27;;
8100;SDS011;4093;53.470;9.832;2022-09-25T03:09:12;37.73;;;22.97;;
8100;SDS011;4093;53.470;9.832;2022-09-25T03:11:41;39.00;;;23.77;;
8100;SDS011;4093;53.470;9.832;2022-09-25T03:14:08;45.43;;;26.57;;
8100;SDS011;4093;53.470;9.832;2022-09-25T03:16:36;35.73;;;23.67;;
8100;SDS011;4093;53.470;9.832;2022-09-25T03:19:08;41.40;;;23.70;;
8100;SDS011;4093;53.470;9.832;2022-09-25T03:21:35;40.00;;;24.37;;
8100;SDS011;4093;53.470;9.832;2022-09-25T03:24:01;42.30;;;26.47;;
8100;SDS011;4093;53.470;9.832;2022-09-25T03:26:28;43.60;;;26.17;;
8100;SDS011;4093;53.470;9.832;2022-09-25T03:28:55;40.93;;;24.17;;
8100;SDS011;4093;53.470;9.832;2022-09-25T03:31:26;45.10;;;26.53;;
8100;SDS011;4093;53.470;9.832;2022-09-25T03:33:53;46.63;;;27.10;;
8100;SDS011;4093;53.470;9.832;2022-09-25T03:36:22;43.77;;;26.73;;
8100;SDS011;4093;53.470;9.832;2022-09-25T03:38:51;45.77;;;27.70;;
8100;SDS011;4093;53.470;9.832;2022-09-25T03:41:22;42.47;;;26.60;;
8100;SDS011;4093;53.470;9.832;2022-09-25T03:43:49;47.40;;;26.27;;
8100;SDS011;4093;53.470;9.832;2022-09-25T03:46:17;41.73;;;26.80;;
8100;SDS011;4093;53.470;9.832;2022-09-25T03:48:45;39.33;;;24.67;;
8100;SDS011;4093;53.470;9.832;2022-09-25T03:51:12;43.47;;;25.60;;
8100;SDS011;4093;53.470;9.832;2022-09-25T03:53:40;40.00;;;25.20;;
8100;SDS011;4093;53.470;9.832;2022-09-25T03:56:08;40.13;;;22.87;;
8100;SDS011;4093;53.470;9.832;2022-09-25T03:58:37;38.20;;;24.13;;
8100;SDS011;4093;53.470;9.832;2022-09-25T04:01:04;43.60;;;24.37;;
8100;SDS011;4093;53.470;9.832;2022-09-25T04:03:32;39.13;;;23.57;;
8100;SDS011;4093;53.470;9.832;2022-09-25T04:06:00;39.60;;;22.53;;
8100;SDS011;4093;53.470;9.832;2022-09-25T04:08:28;38.13;;;21.80;;
8100;SDS011;4093;53.470;9.832;2022-09-25T04:10:57;44.13;;;25.47;;
8100;SDS011;4093;53.470;9.832;2022-09-25T04:13:26;36.70;;;22.67;;
8100;SDS011;4093;53.470;9.832;2022-09-25T04:15:54;41.80;;;24.77;;
8100;SDS011;4093;53.470;9.832;2022-09-25T04:18:22;43.17;;;25.23;;
8100;SDS011;4093;53.470;9.832;2022-09-25T04:20:48;41.97;;;24.47;;
8100;SDS011;4093;53.470;9.832;2022-09-25T04:23:15;41.50;;;25.20;;
8100;SDS011;4093;53.470;9.832;2022-09-25T04:25:42;42.07;;;24.00;;
8100;SDS011;4093;53.470;9.832;2022-09-25T04:28:11;36.57;;;21.83;;
8100;SDS011;4093;53.470;9.832;2022-09-25T04:30:37;38.97;;;23.30;;
8100;SDS011;4093;53.470;9.832;2022-09-25T04:33:04;42.53;;;23.63;;
8100;SDS011;4093;53.470;9.832;2022-09-25T04:35:48;38.70;;;23.03;;
8100;SDS011;4093;53.470;9.832;2022-09-25T04:38:15;34.57;;;20.57;;
8100;SDS011;4093;53.470;9.832;2022-09-25T04:40:42;42.80;;;24.27;;
8100;SDS011;4093;53.470;9.832;2022-09-25T04:43:11;42.77;;;23.63;;
8100;SDS011;4093;53.470;9.832;2022-09-25T04:45:37;34.30;;;21.10;;
8100;SDS011;4093;53.470;9.832;2022-09-25T04:48:04;37.33;;;21.87;;
8100;SDS011;4093;53.470;9.832;2022-09-25T04:50:31;36.67;;;21.97;;
8100;SDS011;4093;53.470;9.832;2022-09-25T04:52:59;30.40;;;19.53;;
8100;SDS011;4093;53.470;9.832;2022-09-25T04:55:26;36.57;;;22.23;;
8100;SDS011;4093;53.470;9.832;2022-09-25T04:57:53;39.70;;;23.43;;
8100;SDS011;4093;53.470;9.832;2022-09-25T05:00:22;36.87;;;22.27;;
8100;SDS011;4093;53.470;9.832;2022-09-25T05:02:50;34.60;;;22.23;;
8100;SDS011;4093;53.470;9.832;2022-09-25T05:05:17;39.33;;;22.73;;
8100;SDS011;4093;53.470;9.832;2022-09-25T05:07:50;37.20;;;23.90;;
8100;SDS011;4093;53.470;9.832;2022-09-25T05:10:18;34.37;;;20.83;;
8100;SDS011;4093;53.470;9.832;2022-09-25T05:12:45;40.27;;;24.03;;
8100;SDS011;4093;53.470;9.832;2022-09-25T05:15:12;38.60;;;23.17;;
8100;SDS011;4093;53.470;9.832;2022-09-25T05:17:40;38.97;;;23.43;;
8100;SDS011;4093;53.470;9.832;2022-09-25T05:20:07;38.83;;;24.27;;
8100;SDS011;4093;53.470;9.832;2022-09-25T05:22:35;35.83;;;22.43;;
8100;SDS011;4093;53.470;9.832;2022-09-25T05:25:01;39.00;;;22.50;;
8100;SDS011;4093;53.470;9.832;2022-09-25T05:27:30;33.93;;;20.90;;
8100;SDS011;4093;53.470;9.832;2022-09-25T05:29:57;36.80;;;21.50;;
8100;SDS011;4093;53.470;9.832;2022-09-25T05:32:24;40.43;;;23.47;;
8100;SDS011;4093;53.470;9.832;2022-09-25T05:34:52;42.93;;;25.77;;
8100;SDS011;4093;53.470;9.832;2022-09-25T05:37:18;41.03;;;24.60;;
8100;SDS011;4093;53.470;9.832;2022-09-25T05:39:45;36.50;;;20.97;;
8100;SDS011;4093;53.470;9.832;2022-09-25T05:42:12;32.03;;;20.67;;
8100;SDS011;4093;53.470;9.832;2022-09-25T05:44:41;29.10;;;18.30;;
8100;SDS011;4093;53.470;9.832;2022-09-25T05:47:07;28.43;;;18.17;;
8100;SDS011;4093;53.470;9.832;2022-09-25T05:49:34;27.53;;;17.23;;
8100;SDS011;4093;53.470;9.832;2022-09-25T05:52:02;27.33;;;17.83;;
8100;SDS011;4093;53.470;9.832;2022-09-25T05:54:29;23.97;;;16.20;;
8100;SDS011;4093;53.470;9.832;2022-09-25T05:56:55;28.50;;;18.23;;
8100;SDS011;4093;53.470;9.832;2022-09-25T05:59:22;29.63;;;18.10;;
8100;SDS011;4093;53.470;9.832;2022-09-25T06:01:48;21.43;;;14.17;;
8100;SDS011;4093;53.470;9.832;2022-09-25T06:04:16;21.57;;;14.17;;
8100;SDS011;4093;53.470;9.832;2022-09-25T06:06:42;20.83;;;14.10;;
8100;SDS011;4093;53.470;9.832;2022-09-25T06:09:10;22.10;;;14.13;;
8100;SDS011;4093;53.470;9.832;2022-09-25T06:11:37;20.77;;;14.23;;
8100;SDS011;4093;53.470;9.832;2022-09-25T06:14:04;17.53;;;11.80;;
8100;SDS011;4093;53.470;9.832;2022-09-25T06:16:31;15.73;;;10.77;;
8100;SDS011;4093;53.470;9.832;2022-09-25T06:18:58;15.43;;;10.57;;
8100;SDS011;4093;53.470;9.832;2022-09-25T06:21:25;15.13;;;10.37;;
8100;SDS011;4093;53.470;9.832;2022-09-25T06:23:51;15.67;;;9.97;;
8100;SDS011;4093;53.470;9.832;2022-09-25T06:26:19;10.87;;;8.37;;
8100;SDS011;4093;53.470;9.832;2022-09-25T06:28:47;11.57;;;7.90;;
8100;SDS011;4093;53.470;9.832;2022-09-25T06:31:13;9.30;;;6.90;;
8100;SDS011;4093;53.470;9.832;2022-09-25T06:33:40;5.93;;;5.27;;
8100;SDS011;4093;53.470;9.832;2022-09-25T06:36:07;6.17;;;5.57;;
8100;SDS011;4093;53.470;9.832;2022-09-25T06:38:34;5.90;;;5.30;;
8100;SDS011;4093;53.470;9.832;2022-09-25T06:41:01;7.23;;;5.27;;
8100;SDS011;4093;53.470;9.832;2022-09-25T06:43:29;5.40;;;4.27;;
8100;SDS011;4093;53.470;9.832;2022-09-25T06:45:58;4.97;;;4.53;;
8100;SDS011;4093;53.470;9.832;2022-09-25T06:48:26;4.60;;;4.20;;
8100;SDS011;4093;53.470;9.832;2022-09-25T06:50:54;4.13;;;3.73;;
8100;SDS011;4093;53.470;9.832;2022-09-25T06:53:22;4.17;;;3.83;;
8100;SDS011;4093;53.470;9.832;2022-09-25T06:55:50;4.33;;;3.90;;
8100;SDS011;4093;53.470;9.832;2022-09-25T06:58:18;3.70;;;3.40;;
8100;SDS011;4093;53.470;9.832;2022-09-25T07:00:48;4.83;;;3.50;;
8100;SDS011;4093;53.470;9.832;2022-09-25T07:03:16;3.73;;;3.43;;
8100;SDS011;4093;53.470;9.832;2022-09-25T07:06:01;3.60;;;3.30;;
8100;SDS011;4093;53.470;9.832;2022-09-25T07:08:28;3.63;;;3.33;;
8100;SDS011;4093;53.470;9.832;2022-09-25T07:10:56;4.40;;;4.07;;
8100;SDS011;4093;53.470;9.832;2022-09-25T07:13:24;4.10;;;3.80;;
8100;SDS011;4093;53.470;9.832;2022-09-25T07:15:55;4.47;;;4.07;;
8100;SDS011;4093;53.470;9.832;2022-09-25T07:18:23;4.33;;;3.93;;
8100;SDS011;4093;53.470;9.832;2022-09-25T07:20:51;5.67;;;4.43;;
8100;SDS011;4093;53.470;9.832;2022-09-25T07:23:19;4.57;;;4.17;;
8100;SDS011;4093;53.470;9.832;2022-09-25T07:25:47;4.90;;;4.40;;
8100;SDS011;4093;53.470;9.832;2022-09-25T07:28:15;4.70;;;4.30;;
8100;SDS011;4093;53.470;9.832;2022-09-25T07:30:44;5.33;;;4.83;;
8100;SDS011;4093;53.470;9.832;2022-09-25T07:33:13;5.10;;;4.63;;
8100;SDS011;4093;53.470;9.832;2022-09-25T07:35:40;4.97;;;4.47;;
8100;SDS011;4093;53.470;9.832;2022-09-25T07:38:07;6.47;;;5.13;;
8100;SDS011;4093;53.470;9.832;2022-09-25T07:40:33;5.20;;;4.70;;
8100;SDS011;4093;53.470;9.832;2022-09-25T07:43:00;5.73;;;5.23;;
8100;SDS011;4093;53.470;9.832;2022-09-25T07:45:27;5.50;;;5.00;;
8100;SDS011;4093;53.470;9.832;2022-09-25T07:47:54;6.20;;;5.60;;
8100;SDS011;4093;53.470;9.832;2022-09-25T07:50:23;7.17;;;6.47;;
8100;SDS011;4093;53.470;9.832;2022-09-25T07:52:49;8.23;;;7.40;;
8100;SDS011;4093;53.470;9.832;2022-09-25T07:55:16;10.10;;;7.43;;
8100;SDS011;4093;53.470;9.832;2022-09-25T07:57:43;7.73;;;6.73;;
8100;SDS011;4093;53.470;9.832;2022-09-25T08:00:11;8.43;;;7.33;;
8100;SDS011;4093;53.470;9.832;2022-09-25T08:02:38;7.77;;;6.97;;
8100;SDS011;4093;53.470;9.832;2022-09-25T08:05:05;8.40;;;7.20;;
8100;SDS011;4093;53.470;9.832;2022-09-25T08:07:34;7.83;;;7.07;;
8100;SDS011;4093;53.470;9.832;2022-09-25T08:10:01;8.63;;;7.73;;
8100;SDS011;4093;53.470;9.832;2022-09-25T08:12:27;8.70;;;7.17;;
8100;SDS011;4093;53.470;9.832;2022-09-25T08:14:54;7.97;;;7.17;;
8100;SDS011;4093;53.470;9.832;2022-09-25T08:17:20;9.37;;;7.80;;
8100;SDS011;4093;53.470;9.832;2022-09-25T08:19:47;12.60;;;8.33;;
8100;SDS011;4093;53.470;9.832;2022-09-25T08:22:14;8.80;;;7.90;;
8100;SDS011;4093;53.470;9.832;2022-09-25T08:24:42;10.27;;;8.93;;
8100;SDS011;4093;53.470;9.832;2022-09-25T08:27:08;11.03;;;8.50;;
8100;SDS011;4093;53.470;9.832;2022-09-25T08:29:35;13.60;;;9.40;;
8100;SDS011;4093;53.470;9.832;2022-09-25T08:32:02;12.33;;;8.67;;
8100;SDS011;4093;53.470;9.832;2022-09-25T08:34:29;12.50;;;9.80;;
8100;SDS011;4093;53.470;9.832;2022-09-25T08:36:56;13.10;;;9.83;;
8100;SDS011;4093;53.470;9.832;2022-09-25T08:39:23;15.33;;;10.87;;
8100;SDS011;4093;53.470;9.832;2022-09-25T08:41:51;15.60;;;11.47;;
8100;SDS011;4093;53.470;9.832;2022-09-25T08:44:23;15.67;;;11.07;;
8100;SDS011;4093;53.470;9.832;2022-09-25T08:46:54;14.43;;;10.43;;
8100;SDS011;4093;53.470;9.832;2022-09-25T08:49:43;16.33;;;11.30;;
8100;SDS011;4093;53.470;9.832;2022-09-25T08:52:13;14.90;;;11.27;;
8100;SDS011;4093;53.470;9.832;2022-09-25T08:54:42;18.80;;;10.30;;
8100;SDS011;4093;53.470;9.832;2022-09-25T08:57:12;15.53;;;11.10;;
8100;SDS011;4093;53.470;9.832;2022-09-25T08:59:49;14.17;;;11.30;;
8100;SDS011;4093;53.470;9.832;2022-09-25T09:02:19;16.57;;;12.30;;
8100;SDS011;4093;53.470;9.832;2022-09-25T09:04:48;14.70;;;11.70;;
8100;SDS011;4093;53.470;9.832;2022-09-25T09:07:17;14.17;;;11.40;;
8100;SDS011;4093;53.470;9.832;2022-09-25T09:09:50;14.80;;;11.83;;
8100;SDS011;4093;53.470;9.832;2022-09-25T09:12:24;16.97;;;11.83;;
8100;SDS011;4093;53.470;9.832;2022-09-25T09:14:58;17.00;;;12.33;;
8100;SDS011;4093;53.470;9.832;2022-09-25T09:17:40;13.83;;;11.70;;
8100;SDS011;4093;53.470;9.832;2022-09-25T09:20:12;15.67;;;11.63;;
8100;SDS011;4093;53.470;9.832;2022-09-25T09:22:44;15.90;;;12.87;;
8100;SDS011;4093;53.470;9.832;2022-09-25T09:25:18;14.73;;;12.37;;
8100;SDS011;4093;53.470;9.832;2022-09-25T09:28:01;18.47;;;14.23;;
8100;SDS011;4093;53.470;9.832;2022-09-25T09:30:40;16.30;;;13.67;;
8100;SDS011;4093;53.470;9.832;2022-09-25T09:33:19;16.17;;;13.40;;
8100;SDS011;4093;53.470;9.832;2022-09-25T09:36:01;15.13;;;13.33;;
8100;SDS011;4093;53.470;9.832;2022-09-25T09:38:35;20.93;;;14.73;;
8100;SDS011;4093;53.470;9.832;2022-09-25T09:41:14;21.13;;;15.80;;
8100;SDS011;4093;53.470;9.832;2022-09-25T09:43:55;19.60;;;15.07;;
8100;SDS011;4093;53.470;9.832;2022-09-25T09:46:33;18.83;;;14.67;;
8100;SDS011;4093;53.470;9.832;2022-09-25T09:49:10;16.93;;;15.13;;
8100;SDS011;4093;53.470;9.832;2022-09-25T09:51:42;20.50;;;15.27;;
8100;SDS011;4093;53.470;9.832;2022-09-25T09:54:14;17.37;;;15.43;;
8100;SDS011;4093;53.470;9.832;2022-09-25T09:56:46;19.27;;;15.37;;
8100;SDS011;4093;53.470;9.832;2022-09-25T09:59:17;21.33;;;15.57;;
8100;SDS011;4093;53.470;9.832;2022-09-25T10:01:49;19.67;;;16.03;;
8100;SDS011;4093;53.470;9.832;2022-09-25T10:04:24;19.63;;;15.23;;
8100;SDS011;4093;53.470;9.832;2022-09-25T10:06:57;18.50;;;15.87;;
8100;SDS011;4093;53.470;9.832;2022-09-25T10:09:28;18.13;;;15.70;;
8100;SDS011;4093;53.470;9.832;2022-09-25T10:11:56;16.97;;;14.47;;
8100;SDS011;4093;53.470;9.832;2022-09-25T10:14:31;18.30;;;14.50;;
8100;SDS011;4093;53.470;9.832;2022-09-25T10:17:02;16.73;;;14.30;;
8100;SDS011;4093;53.470;9.832;2022-09-25T10:19:32;15.57;;;11.87;;
8100;SDS011;4093;53.470;9.832;2022-09-25T10:22:09;17.60;;;11.77;;
8100;SDS011;4093;53.470;9.832;2022-09-25T10:24:47;16.57;;;11.17;;
8100;SDS011;4093;53.470;9.832;2022-09-25T10:27:21;15.03;;;12.13;;
8100;SDS011;4093;53.470;9.832;2022-09-25T10:32:45;14.90;;;11.00;;
8100;SDS011;4093;53.470;9.832;2022-09-25T10:35:19;13.47;;;10.23;;
8100;SDS011;4093;53.470;9.832;2022-09-25T10:37:47;12.60;;;10.33;;
8100;SDS011;4093;53.470;9.832;2022-09-25T10:40:26;14.10;;;9.67;;
8100;SDS011;4093;53.470;9.832;2022-09-25T10:43:03;15.43;;;10.50;;
8100;SDS011;4093;53.470;9.832;2022-09-25T10:45:33;17.97;;;11.10;;
8100;SDS011;4093;53.470;9.832;2022-09-25T10:48:18;14.37;;;9.17;;
8100;SDS011;4093;53.470;9.832;2022-09-25T10:51:13;14.47;;;10.53;;
8100;SDS011;4093;53.470;9.832;2022-09-25T10:53:42;13.67;;;9.73;;
8100;SDS011;4093;53.470;9.832;2022-09-25T10:56:12;13.70;;;9.77;;
8100;SDS011;4093;53.470;9.832;2022-09-25T10:58:42;12.63;;;10.00;;
8100;SDS011;4093;53.470;9.832;2022-09-25T11:01:13;15.07;;;10.37;;
8100;SDS011;4093;53.470;9.832;2022-09-25T11:03:45;13.47;;;10.47;;
8100;SDS011;4093;53.470;9.832;2022-09-25T11:06:16;13.87;;;9.40;;
8100;SDS011;4093;53.470;9.832;2022-09-25T11:08:46;14.67;;;9.67;;
8100;SDS011;4093;53.470;9.832;2022-09-25T11:11:19;13.93;;;10.33;;
8100;SDS011;4093;53.470;9.832;2022-09-25T11:13:51;12.23;;;9.40;;
8100;SDS011;4093;53.470;9.832;2022-09-25T11:16:21;16.70;;;9.37;;
8100;SDS011;4093;53.470;9.832;2022-09-25T11:19:10;13.13;;;9.07;;
8100;SDS011;4093;53.470;9.832;2022-09-25T11:21:39;13.10;;;8.10;;
8100;SDS011;4093;53.470;9.832;2022-09-25T11:24:12;14.27;;;8.33;;
8100;SDS011;4093;53.470;9.832;2022-09-25T11:26:45;12.30;;;8.83;;
8100;SDS011;4093;53.470;9.832;2022-09-25T11:29:18;10.53;;;8.83;;
8100;SDS011;4093;53.470;9.832;2022-09-25T11:31:50;14.17;;;8.77;;
8100;SDS011;4093;53.470;9.832;2022-09-25T11:34:26;11.00;;;8.00;;
8100;SDS011;4093;53.470;9.832;2022-09-25T11:37:09;8.80;;;7.77;;
8100;SDS011;4093;53.470;9.832;2022-09-25T11:39:44;12.80;;;8.77;;
8100;SDS011;4093;53.470;9.832;2022-09-25T11:42:32;12.93;;;8.03;;
8100;SDS011;4093;53.470;9.832;2022-09-25T11:45:06;15.37;;;8.90;;
8100;SDS011;4093;53.470;9.832;2022-09-25T11:47:44;9.60;;;7.53;;
8100;SDS011;4093;53.470;9.832;2022-09-25T11:50:17;10.93;;;7.27;;
8100;SDS011;4093;53.470;9.832;2022-09-25T11:52:49;12.00;;;7.70;;
8100;SDS011;4093;53.470;9.832;2022-09-25T11:55:37;12.17;;;7.37;;
8100;SDS011;4093;53.470;9.832;2022-09-25T11:58:23;9.53;;;6.50;;
8100;SDS011;4093;53.470;9.832;2022-09-25T12:01:10;9.20;;;6.33;;
8100;SDS011;4093;53.470;9.832;2022-09-25T12:03:53;8.87;;;6.33;;
8100;SDS011;4093;53.470;9.832;2022-09-25T12:06:32;7.63;;;6.00;;
8100;SDS011;4093;53.470;9.832;2022-09-25T12:09:29;9.60;;;5.83;;
8100;SDS011;4093;53.470;9.832;2022-09-25T12:12:09;9.03;;;6.10;;
8100;SDS011;4093;53.470;9.832;2022-09-25T12:14:47;7.40;;;5.73;;
8100;SDS011;4093;53.470;9.832;2022-09-25T12:17:22;8.30;;;5.37;;
8100;SDS011;4093;53.470;9.832;2022-09-25T12:19:59;10.57;;;5.40;;
8100;SDS011;4093;53.470;9.832;2022-09-25T12:22:38;14.00;;;5.93;;
8100;SDS011;4093;53.470;9.832;2022-09-25T12:25:17;6.43;;;5.43;;
8100;SDS011;4093;53.470;9.832;2022-09-25T12:27:59;8.37;;;5.20;;
8100;SDS011;4093;53.470;9.832;2022-09-25T12:30:33;8.83;;;5.20;;
8100;SDS011;4093;53.470;9.832;2022-09-25T12:33:12;6.47;;;5.47;;
8100;SDS011;4093;53.470;9.832;2022-09-25T12:35:49;5.93;;;5.13;;
8100;SDS011;4093;53.470;9.832;2022-09-25T12:38:26;4.73;;;4.33;;
8100;SDS011;4093;53.470;9.832;2022-09-25T12:41:00;6.77;;;4.10;;
8100;SDS011;4093;53.470;9.832;2022-09-25T12:43:34;6.17;;;4.33;;
8100;SDS011;4093;53.470;9.832;2022-09-25T12:46:07;3.93;;;3.50;;
8100;SDS011;4093;53.470;9.832;2022-09-25T12:48:40;7.93;;;4.17;;
8100;SDS011;4093;53.470;9.832;2022-09-25T12:51:12;5.23;;;3.30;;
8100;SDS011;4093;53.470;9.832;2022-09-25T12:53:44;6.03;;;3.33;;
8100;SDS011;4093;53.470;9.832;2022-09-25T12:56:15;4.13;;;3.37;;
8100;SDS011;4093;53.470;9.832;2022-09-25T12:58:50;4.40;;;3.00;;
8100;SDS011;4093;53.470;9.832;2022-09-25T13:01:25;4.90;;;3.13;;
8100;SDS011;4093;53.470;9.832;2022-09-25T13:04:02;7.63;;;3.43;;
8100;SDS011;4093;53.470;9.832;2022-09-25T13:06:41;3.77;;;3.27;;
8100;SDS011;4093;53.470;9.832;2022-09-25T13:09:17;4.60;;;3.20;;
8100;SDS011;4093;53.470;9.832;2022-09-25T13:11:53;8.67;;;3.10;;
8100;SDS011;4093;53.470;9.832;2022-09-25T13:14:28;4.33;;;3.17;;
8100;SDS011;4093;53.470;9.832;2022-09-25T13:16:59;3.80;;;3.33;;
8100;SDS011;4093;53.470;9.832;2022-09-25T13:19:27;4.27;;;3.17;;
8100;SDS011;4093;53.470;9.832;2022-09-25T13:22:02;4.30;;;3.40;;
8100;SDS011;4093;53.470;9.832;2022-09-25T13:24:36;6.33;;;4.07;;
8100;SDS011;4093;53.470;9.832;2022-09-25T13:27:04;4.00;;;3.47;;
8100;SDS011;4093;53.470;9.832;2022-09-25T13:29:39;4.20;;;3.40;;
8100;SDS011;4093;53.470;9.832;2022-09-25T13:32:06;9.10;;;4.20;;
8100;SDS011;4093;53.470;9.832;2022-09-25T13:34:40;4.90;;;3.13;;
8100;SDS011;4093;53.470;9.832;2022-09-25T13:37:09;6.03;;;3.63;;
8100;SDS011;4093;53.470;9.832;2022-09-25T13:39:37;5.37;;;3.03;;
8100;SDS011;4093;53.470;9.832;2022-09-25T13:42:25;4.73;;;3.00;;
8100;SDS011;4093;53.470;9.832;2022-09-25T13:45:00;7.67;;;3.37;;
8100;SDS011;4093;53.470;9.832;2022-09-25T13:50:25;5.53;;;2.93;;
8100;SDS011;4093;53.470;9.832;2022-09-25T13:56:12;6.77;;;3.47;;
8100;SDS011;4093;53.470;9.832;2022-09-25T13:59:03;5.53;;;2.90;;
8100;SDS011;4093;53.470;9.832;2022-09-25T14:01:52;5.43;;;3.20;;
8100;SDS011;4093;53.470;9.832;2022-09-25T14:04:22;4.40;;;2.57;;
8100;SDS011;4093;53.470;9.832;2022-09-25T14:07:02;2.70;;;2.10;;
8100;SDS011;4093;53.470;9.832;2022-09-25T14:09:34;5.20;;;2.57;;
8100;SDS011;4093;53.470;9.832;2022-09-25T14:12:20;4.20;;;2.33;;
8100;SDS011;4093;53.470;9.832;2022-09-25T14:14:54;8.17;;;2.40;;
8100;SDS011;4093;53.470;9.832;2022-09-25T14:17:24;4.20;;;2.87;;
8100;SDS011;4093;53.470;9.832;2022-09-25T14:19:56;6.53;;;2.40;;
8100;SDS011;4093;53.470;9.832;2022-09-25T14:22:28;5.77;;;2.43;;
8100;SDS011;4093;53.470;9.832;2022-09-25T14:25:00;7.43;;;2.40;;
8100;SDS011;4093;53.470;9.832;2022-09-25T14:27:27;4.27;;;2.43;;
8100;SDS011;4093;53.470;9.832;2022-09-25T14:30:04;5.33;;;2.03;;
8100;SDS011;4093;53.470;9.832;2022-09-25T14:32:37;4.93;;;1.80;;
8100;SDS011;4093;53.470;9.832;2022-09-25T14:35:21;7.93;;;2.30;;
8100;SDS011;4093;53.470;9.832;2022-09-25T14:38:03;5.90;;;2.10;;
8100;SDS011;4093;53.470;9.832;2022-09-25T14:40:55;4.77;;;2.10;;
8100;SDS011;4093;53.470;9.832;2022-09-25T14:43:43;5.37;;;1.67;;
8100;SDS011;4093;53.470;9.832;2022-09-25T14:46:20;2.87;;;1.77;;
8100;SDS011;4093;53.470;9.832;2022-09-25T14:48:49;4.33;;;1.87;;
8100;SDS011;4093;53.470;9.832;2022-09-25T14:51:20;3.33;;;1.90;;
8100;SDS011;4093;53.470;9.832;2022-09-25T14:53:51;6.43;;;2.10;;
8100;SDS011;4093;53.470;9.832;2022-09-25T14:56:23;8.70;;;2.17;;
8100;SDS011;4093;53.470;9.832;2022-09-25T14:58:52;3.67;;;2.10;;
8100;SDS011;4093;53.470;9.832;2022-09-25T15:01:22;3.23;;;1.77;;
8100;SDS011;4093;53.470;9.832;2022-09-25T15:03:53;7.73;;;2.20;;
8100;SDS011;4093;53.470;9.832;2022-09-25T15:06:26;7.17;;;2.57;;
8100;SDS011;4093;53.470;9.832;2022-09-25T15:08:54;6.37;;;1.77;;
8100;SDS011;4093;53.470;9.832;2022-09-25T15:11:24;4.60;;;1.83;;
8100;SDS011;4093;53.470;9.832;2022-09-25T15:13:53;4.27;;;1.93;;
8100;SDS011;4093;53.470;9.832;2022-09-25T15:16:34;4.63;;;1.77;;
8100;SDS011;4093;53.470;9.832;2022-09-25T15:19:21;4.87;;;1.83;;
8100;SDS011;4093;53.470;9.832;2022-09-25T15:21:51;3.17;;;1.57;;
8100;SDS011;4093;53.470;9.832;2022-09-25T15:24:19;4.57;;;1.73;;
8100;SDS011;4093;53.470;9.832;2022-09-25T15:26:53;4.97;;;2.03;;
8100;SDS011;4093;53.470;9.832;2022-09-25T15:29:26;4.13;;;1.80;;
8100;SDS011;4093;53.470;9.832;2022-09-25T15:31:55;6.13;;;1.83;;
8100;SDS011;4093;53.470;9.832;2022-09-25T15:34:23;4.40;;;1.80;;
8100;SDS011;4093;53.470;9.832;2022-09-25T15:36:51;3.73;;;2.03;;